General Mariano Escobedo International Airport
MMMY : now visible

Airfield :











YOU CAN JOIN US ON...

 
LOGIN :

Register | Disclaimer

   EN    FR    IT 

 









Legend :    VFR   Marginal VFR   IFR   Intensive IFR   Very Intensive IFR
Visi :
Ceiling :
>= 8 km
>= 3000ft
5 to 8 km
1000 to 3000 ft
1500m to 5 km
500 to 1000 ft
800 to 1500m
200 to 500 ft
< 800m
< 200 ft
Symbols :   Thunderstorms  Fog  Heavy snow  Heavy precipitations  Wind > 20 kt







- Airport Elevation : 1278 ft
- IATA code : MTY


MMMY - General Mariano Escobedo International

CURRENT METAR :
  • 201440Z 09008KT 3SM BR HZ BKN015 OVC018 25/22 A2991 RMK SLP/// 5//// 9// 8/5//

EXPIRED METARs :
  • 201340Z 08005KT 3SM BR HZ BKN015 OVC020 25/22 A2988 RMK 8/5//
  • 201240Z 10006KT 3SM BR HZ BKN020 OVC025 25/22 A2986 RMK 8/5//

TAF COR TAF MMMY
Valid from the 20 at 12:00 until the 21 at 18:00 UTC


201206Z 2012/2118 08005KT 5SM HZ BKN025 OVC030 TX32/2021Z TN25/2012Z
TEMPO 2012/2015 2SM BR OVC010
FM201800 13010KT 5SM HZ SCT020
FM210300 13005KT 4SM HZ SCT015
TEMPO 2112/2115 3SM BR BKN010
FM211800 13010KT P6SM SCT030
No reported NOTAMs for that airfield.



MET'MAP, your aeronautical weather chart ! - Copyright ORBIFLY December 2007 - Disclaimer

ORBIFLY MET'MAP TEAM :

Programming & Development : Alexandra Zaïnal
Concept & Development : Baudouin d'Aumeries
Co-Development & Prog : Marc-Olivier Méhu
Technical & hardware support : Manuel Goepfert

Contact : metmap@orbifly.com




SOURCES & CREDITS :

   NOAA       Earth
Advisory